Thursday, January 17, 2019, 7:02 AM EST
Back to Local

KDYL, Doylestown Airport

Location: Doylestown, PA, United States Lat: 40.333
Local Time: 7:02 AM EST (12:02 GMT) Lon: -75.117
Time Zone: US/Eastern Elev: 393 ft

Show me the last for .
Show Coded

Time T Td Feel RH Dir Speed Gust Alt SLP Vis Weather Sky Remarks
2019-01-17 05:54 24 10 17 54 340° 6 - 30.33 30.36 10 CLR None
2019-01-17 04:54 26 12 21 54 30° 5 - 30.32 30.34 10 CLR None
2019-01-17 03:54 27 13 20 54 20° 6 - 30.30 30.32 10 CLR None
2019-01-17 02:54 29 14 20 53 20° 9 - 30.30 30.32 10 CLR None
2019-01-17 01:54 29 13 23 50 350° 6 - 30.27 30.29 10 CLR None
2019-01-17 00:54 31 15 23 51 330° 9 - 30.25 30.28 10 CLR 6-hr Min Temp (1am): 30.9°F
6-hr Max Temp (1am): 35.1°F
2019-01-16 23:54 33 18 22 53 320° 7 17 30.23 30.25 10 FEW042 24-hr Min Temp (12am): 21.9°F
24-hr Max Temp (12am): 37.0°F
2019-01-16 22:54 34 22 31 60 280° 3 - 30.21 30.23 10 OVC044 None
2019-01-16 21:54 34 21 29 58 270° 6 - 30.19 30.21 10 OVC050 None
2019-01-16 20:54 33 21 29 60 270° 5 - 30.17 30.19 10 CLR None
2019-01-16 19:54 34 20 29 55 240° 6 - 30.15 30.17 10 BKN050 None
2019-01-16 18:54 34 20 28 55 270° 7 - 30.14 30.16 10 CLR 6-hr Min Temp (7pm): 34.0°F
6-hr Max Temp (7pm): 37.0°F
2019-01-16 17:54 36 20 28 51 280° 10 - 30.13 30.15 10 OVC046 None
2019-01-16 16:54 37 22 32 53 310° 7 - 30.10 30.12 10 OVC041 None
2019-01-16 15:54 37 24 30 59 270° 9 - 30.08 30.10 10 OVC040 None
2019-01-16 14:54 37 25 31 61 270° 8 - 30.06 30.09 10 OVC038 None
2019-01-16 13:54 36 24 30 61 260° 7 - 30.05 30.08 10 OVC034 None
2019-01-16 12:54 35 24 29 63 250° 7 - 30.05 30.08 10 OVC032 6-hr Min Temp (1pm): 27.0°F
6-hr Max Temp (1pm): 35.1°F
2019-01-16 12:22 34 24 30 66 240° 5 - 30.06 - 10 OVC030 None
2019-01-16 11:54 34 24 28 66 Variable 7 - 30.08 30.10 10 OVC029 None
2019-01-16 10:54 33 24 28 69 240° 6 - 30.10 30.12 10 OVC027 None
2019-01-16 09:54 32 23 27 68 Variable 5 - 30.09 30.11 10 OVC026 None
2019-01-16 08:54 30 22 23 71 260° 7 - 30.07 30.10 10 OVC026 None
2019-01-16 07:54 28 21 22 74 260° 6 - 30.06 30.09 10 OVC027 None

Support USWX by starting your Amazon purchase here.